Time;durP1;ratioP1;P1;durP2;ratioP2;P2;SDS_P1;SDS_P2;PMS_P1;PMS_P2;Temp;Humidity;BMP_temperature;BMP_pressure;BME280_temperature;BME280_humidity;BME280_pressure;Samples;Min_cycle;Max_cycle;Signal;HPM_P1;HPM_P2
2023/09/21 00:00:20;;;;;;;;;3.50;3.50;;;;;21.84;56.65;99447.69;5078931;27;72171;-77
2023/09/21 00:02:50;;;;;;;;;2.50;2.00;;;;;21.85;56.88;99452.88;5079784;27;45365;-77
2023/09/21 00:05:24;;;;;;;;;3.00;2.00;;;;;21.79;56.75;99435.63;5072553;28;45434;-77
2023/09/21 00:07:54;;;;;;;;;2.00;2.00;;;;;21.81;56.15;99440.81;5074243;28;47178;-77
2023/09/21 00:10:19;;;;;;;;;3.50;2.00;;;;;21.78;56.46;99430.47;5077533;28;45826;-77
2023/09/21 00:12:45;;;;;;;;;4.00;2.50;;;;;21.77;56.55;99436.78;5080920;28;45300;-77
2023/09/21 00:15:21;;;;;;;;;3.00;3.00;;;;;21.80;56.39;99440.00;5066908;28;45453;-77
2023/09/21 00:17:47;;;;;;;;;3.25;2.75;;;;;21.80;56.69;99439.16;5073929;28;47226;-77
2023/09/21 00:20:23;;;;;;;;;2.75;2.75;;;;;21.80;57.04;99434.66;5070132;28;45881;-77
2023/09/21 00:22:49;;;;;;;;;3.00;3.00;;;;;21.82;56.68;99429.19;5074382;28;45381;-78
2023/09/21 00:25:17;;;;;;;;;5.25;3.00;;;;;21.80;57.03;99436.50;5066722;28;45948;-77
2023/09/21 00:27:44;;;;;;;;;3.00;2.00;;;;;21.77;57.35;99437.63;5063283;28;45572;-78
2023/09/21 00:30:10;;;;;;;;;2.00;2.00;;;;;21.76;57.34;99419.13;5075810;28;45481;-78
2023/09/21 00:32:40;;;;;;;;;4.50;2.75;;;;;21.76;57.30;99419.13;5078391;27;45240;-77
2023/09/21 00:35:09;;;;;;;;;2.25;2.25;;;;;21.73;57.69;99417.59;5076697;28;47030;-77
2023/09/21 00:37:39;;;;;;;;;3.00;3.00;;;;;21.73;57.50;99420.25;5077341;28;46348;-78
2023/09/21 00:40:18;;;;;;;;;4.75;2.00;;;;;21.70;57.49;99417.03;5079404;28;46376;-77
2023/09/21 00:42:44;;;;;;;;;1.00;1.00;;;;;21.68;57.81;99419.03;5077701;27;45450;-78
2023/09/21 00:45:10;;;;;;;;;3.50;2.00;;;;;21.66;58.76;99400.53;5071292;28;46407;-76
2023/09/21 00:47:39;;;;;;;;;3.75;2.50;;;;;21.60;59.52;99391.31;5075517;28;47408;-78
2023/09/21 00:50:09;;;;;;;;;2.75;2.00;;;;;21.55;58.96;99408.69;5073059;28;45447;-78
2023/09/21 00:52:35;;;;;;;;;2.50;2.50;;;;;21.53;58.73;99416.81;5065000;28;45285;-77
2023/09/21 00:55:01;;;;;;;;;3.00;2.00;;;;;21.50;58.62;99411.78;5074743;28;45506;-77
2023/09/21 00:57:26;;;;;;;;;3.00;3.00;;;;;21.48;59.44;99408.44;5073439;28;45585;-77
2023/09/21 00:59:52;;;;;;;;;2.50;2.00;;;;;21.46;59.62;99417.53;5065093;28;47976;-76
2023/09/21 01:02:18;;;;;;;;;2.00;2.00;;;;;21.40;59.46;99416.25;5078221;28;45460;-76
2023/09/21 01:04:43;;;;;;;;;2.50;1.75;;;;;21.37;59.41;99412.06;5069931;28;45355;-76
2023/09/21 01:07:17;;;;;;;;;2.00;2.00;;;;;21.34;59.77;99406.19;5066709;28;46997;-76
2023/09/21 01:09:43;;;;;;;;;1.75;1.75;;;;;21.31;59.95;99394.00;5074083;28;45792;-77
2023/09/21 01:12:11;;;;;;;;;1.75;1.25;;;;;21.28;60.40;99393.44;5078242;28;45439;-76
2023/09/21 01:14:38;;;;;;;;;2.00;2.00;;;;;21.25;60.28;99399.91;5072773;28;45468;-76
2023/09/21 01:17:04;;;;;;;;;3.00;2.00;;;;;21.23;60.77;99396.56;5075571;27;66617;-77
2023/09/21 01:19:29;;;;;;;;;2.50;2.00;;;;;21.21;61.21;99409.13;5072203;28;45216;-78
2023/09/21 01:21:56;;;;;;;;;3.75;2.00;;;;;21.19;61.51;99403.13;5069997;28;67944;-78
2023/09/21 01:24:23;;;;;;;;;3.50;3.00;;;;;21.17;61.38;99394.44;5076114;28;45545;-78
2023/09/21 01:26:48;;;;;;;;;2.50;2.00;;;;;21.17;61.20;99403.25;5076762;28;46247;-78
2023/09/21 01:29:14;;;;;;;;;3.25;2.00;;;;;21.14;61.13;99400.03;5074431;28;45489;-78
2023/09/21 01:31:40;;;;;;;;;3.00;3.00;;;;;21.11;62.15;99398.53;5075099;28;45534;-77
2023/09/21 01:34:05;;;;;;;;;2.25;1.00;;;;;21.04;63.22;99405.38;5076317;28;46980;-79
2023/09/21 01:36:32;;;;;;;;;2.00;2.00;;;;;20.94;81.44;99401.91;5070549;28;46564;-77
2023/09/21 01:38:58;;;;;;;;;4.25;3.00;;;;;20.87;65.08;99388.31;5076128;28;45347;-77
2023/09/21 01:41:23;;;;;;;;;6.25;4.00;;;;;20.84;64.13;99388.59;5079162;28;45512;-77
2023/09/21 01:43:49;;;;;;;;;4.00;2.00;;;;;20.80;65.02;99384.53;5076473;28;45521;-77
2023/09/21 01:46:18;;;;;;;;;3.25;2.75;;;;;20.77;66.22;99387.47;5079143;28;57628;-77
2023/09/21 01:48:45;;;;;;;;;3.00;3.00;;;;;20.71;65.48;99382.72;5076647;27;46013;-77
2023/09/21 01:51:12;;;;;;;;;2.00;2.00;;;;;20.65;65.12;99377.00;5076254;28;45500;-77
2023/09/21 01:53:38;;;;;;;;;3.00;3.00;;;;;20.61;65.58;99391.53;5068147;27;45635;-77
2023/09/21 01:56:03;;;;;;;;;2.50;2.50;;;;;20.52;67.31;99379.03;5069002;28;71662;-77
2023/09/21 01:58:29;;;;;;;;;4.75;3.00;;;;;20.45;66.94;99368.13;5076034;28;45426;-77
2023/09/21 02:00:54;;;;;;;;;5.50;2.50;;;;;20.43;66.61;99370.09;5074599;28;58763;-78
2023/09/21 02:03:27;;;;;;;;;4.00;2.00;;;;;20.38;67.26;99366.16;5078273;28;60179;-78
2023/09/21 02:05:53;;;;;;;;;2.75;2.75;;;;;20.34;67.52;99362.09;5076603;28;45525;-77
2023/09/21 02:08:19;;;;;;;;;2.00;1.75;;;;;20.27;67.97;99360.00;5068547;28;45503;-77
2023/09/21 02:10:45;;;;;;;;;3.50;2.25;;;;;20.25;68.08;99351.31;5078933;28;45286;-78
2023/09/21 02:13:10;;;;;;;;;2.25;2.00;;;;;20.21;69.37;99349.91;5078476;28;45644;-76
2023/09/21 02:15:37;;;;;;;;;2.75;2.00;;;;;20.13;69.17;99340.97;5073949;28;46388;-77
2023/09/21 02:18:04;;;;;;;;;3.00;3.00;;;;;20.12;68.36;99337.47;5074679;27;45276;-76
2023/09/21 02:20:30;;;;;;;;;2.25;2.25;;;;;20.06;68.59;99325.59;5057630;28;45520;-78
2023/09/21 02:22:58;;;;;;;;;2.50;2.25;;;;;20.07;69.16;99331.72;5073643;27;45320;-77
2023/09/21 02:25:24;;;;;;;;;3.00;3.00;;;;;20.05;69.21;99321.22;5071597;28;45716;-76
2023/09/21 02:27:49;;;;;;;;;2.00;2.00;;;;;20.05;68.89;99325.72;5070970;28;45232;-76
2023/09/21 02:30:17;;;;;;;;;2.25;2.25;;;;;20.04;69.86;99319.56;5070768;27;45161;-78
2023/09/21 02:32:53;;;;;;;;;2.00;1.75;;;;;20.04;69.98;99327.53;5074031;27;45735;-77
2023/09/21 02:35:24;;;;;;;;;4.50;2.25;;;;;20.00;69.92;99318.16;5078783;27;46251;-77
2023/09/21 02:37:51;;;;;;;;;3.50;2.00;;;;;19.98;70.07;99311.31;5075819;28;45670;-78
2023/09/21 02:40:19;;;;;;;;;4.00;2.00;;;;;19.96;71.11;99306.13;5074157;27;45299;-79
2023/09/21 02:42:49;;;;;;;;;2.75;2.25;;;;;19.94;69.76;99302.78;5070891;28;45553;-78
2023/09/21 02:45:15;;;;;;;;;2.75;2.75;;;;;19.92;71.21;99294.13;5065217;27;45467;-77
2023/09/21 02:47:41;;;;;;;;;2.25;1.00;;;;;19.90;71.23;99280.97;5078032;27;45426;-78
2023/09/21 02:50:21;;;;;;;;;4.00;2.75;;;;;19.92;71.07;99280.84;5077105;27;45282;-78
2023/09/21 02:53:12;;;;;;;;;5.00;2.00;;;;;19.87;70.83;99277.75;5080922;27;45462;-78
2023/09/21 02:55:38;;;;;;;;;4.00;2.75;;;;;19.88;71.47;99271.44;5076809;27;47211;-78
2023/09/21 02:58:12;;;;;;;;;2.50;2.00;;;;;19.88;71.39;99274.97;5071996;28;45545;-77
2023/09/21 03:00:42;;;;;;;;;4.50;2.25;;;;;19.88;71.41;99264.34;5076616;27;45263;-77
2023/09/21 03:03:13;;;;;;;;;3.00;2.00;;;;;19.86;71.21;99270.75;5075035;27;45601;-78
2023/09/21 03:05:42;;;;;;;;;5.00;2.00;;;;;19.86;71.70;99268.09;5072113;27;45576;-76
2023/09/21 03:08:14;;;;;;;;;2.00;2.00;;;;;19.85;70.98;99261.97;5077010;27;45390;-77
2023/09/21 03:10:44;;;;;;;;;2.75;2.00;;;;;19.85;71.94;99263.78;5077732;27;45454;-76
2023/09/21 03:13:10;;;;;;;;;1.75;1.75;;;;;19.85;71.93;99274.41;5075439;27;45479;-75
2023/09/21 03:15:36;;;;;;;;;1.25;1.25;;;;;19.84;71.52;99268.22;5074117;28;46128;-75
2023/09/21 03:18:03;;;;;;;;;2.00;1.25;;;;;19.83;71.62;99269.22;5064987;28;45272;-76
2023/09/21 03:20:32;;;;;;;;;1.25;1.25;;;;;19.84;71.91;99259.44;5070407;27;45433;-76
2023/09/21 03:22:57;;;;;;;;;2.00;2.00;;;;;19.84;72.23;99262.91;5074440;28;45618;-76
2023/09/21 03:25:25;;;;;;;;;2.25;2.25;;;;;19.83;72.38;99265.72;5073046;27;46259;-76
2023/09/21 03:27:55;;;;;;;;;1.00;1.00;;;;;19.85;72.53;99261.13;5072927;28;45791;-76
2023/09/21 03:30:23;;;;;;;;;1.75;1.00;;;;;19.88;72.39;99268.78;5064568;27;45511;-76
2023/09/21 03:32:48;;;;;;;;;1.75;1.75;;;;;19.87;71.98;99262.66;5067325;28;45504;-75
2023/09/21 03:35:14;;;;;;;;;1.75;1.00;;;;;19.88;72.66;99261.69;5075430;28;45564;-75
2023/09/21 03:37:45;;;;;;;;;2.00;2.00;;;;;19.89;72.27;99262.53;5077913;28;45352;-75
2023/09/21 03:40:12;;;;;;;;;4.00;2.00;;;;;19.88;72.11;99255.53;5072878;27;45325;-76
2023/09/21 03:42:37;;;;;;;;;2.75;1.00;;;;;19.87;72.39;99259.16;5068888;28;45457;-75
2023/09/21 03:45:04;;;;;;;;;2.00;2.00;;;;;19.88;73.08;99255.53;5066275;28;66780;-76
2023/09/21 03:47:29;;;;;;;;;2.00;2.00;;;;;19.86;73.75;99255.66;5069399;28;45227;-76
2023/09/21 03:49:55;;;;;;;;;1.00;1.00;;;;;19.88;74.02;99255.53;5074641;28;68324;-75
2023/09/21 03:52:22;;;;;;;;;3.00;1.00;;;;;19.86;73.19;99250.34;5076880;27;45524;-75
2023/09/21 03:54:47;;;;;;;;;2.00;2.00;;;;;19.86;73.08;99245.03;5072235;28;45512;-75
2023/09/21 03:57:16;;;;;;;;;3.75;2.00;;;;;19.85;73.37;99246.03;5076117;27;45997;-75
2023/09/21 03:59:42;;;;;;;;;1.25;1.00;;;;;19.85;73.27;99255.81;5077501;27;45568;-76
2023/09/21 04:02:08;;;;;;;;;2.00;1.00;;;;;19.86;75.15;99265.44;5072611;28;45567;-76
2023/09/21 04:04:33;;;;;;;;;1.00;1.00;;;;;19.83;72.80;99247.97;5077152;27;46354;-76
2023/09/21 04:06:58;;;;;;;;;1.00;1.00;;;;;19.83;72.94;99247.13;5078195;27;45398;-77
2023/09/21 04:09:24;;;;;;;;;4.25;1.00;;;;;19.85;73.16;99246.03;5074829;27;61966;-77
2023/09/21 04:11:49;;;;;;;;;1.50;1.50;;;;;19.84;73.02;99241.69;5072935;28;64500;-76
2023/09/21 04:14:14;;;;;;;;;1.00;1.00;;;;;19.87;72.58;99249.38;5075632;28;74462;-77
2023/09/21 04:16:40;;;;;;;;;4.00;1.00;;;;;19.86;72.94;99249.50;5073967;27;67520;-75
2023/09/21 04:19:05;;;;;;;;;1.00;1.00;;;;;19.88;73.31;99242.25;5068944;28;65862;-76
2023/09/21 04:21:31;;;;;;;;;1.00;1.00;;;;;19.87;74.15;99249.38;5071232;27;58837;-76
2023/09/21 04:23:57;;;;;;;;;2.00;1.75;;;;;19.86;73.61;99247.69;5070767;27;46923;-76
2023/09/21 04:26:22;;;;;;;;;1.00;1.00;;;;;19.86;73.04;99246.84;5066967;28;45484;-76
2023/09/21 04:28:48;;;;;;;;;3.50;1.00;;;;;19.85;74.19;99243.38;5074203;27;57523;-76
2023/09/21 04:31:13;;;;;;;;;2.00;2.00;;;;;19.83;73.36;99232.06;5068518;27;45651;-77
2023/09/21 04:33:39;;;;;;;;;0.75;0.00;;;;;19.80;73.52;99221.72;5069488;28;46205;-77
2023/09/21 04:36:05;;;;;;;;;2.00;2.00;;;;;19.84;73.38;99228.41;5065856;27;45543;-77
2023/09/21 04:38:30;;;;;;;;;1.00;1.00;;;;;19.83;73.62;99228.53;5080182;27;45358;-77
2023/09/21 04:40:56;;;;;;;;;2.00;2.00;;;;;19.84;73.78;99224.91;5076084;27;70294;-77
2023/09/21 04:43:21;;;;;;;;;2.50;2.00;;;;;19.80;73.95;99221.72;5077439;27;46907;-78
2023/09/21 04:45:49;;;;;;;;;1.50;1.50;;;;;19.82;73.32;99219.75;5082072;27;45438;-77
2023/09/21 04:48:15;;;;;;;;;3.75;3.00;;;;;19.83;73.42;99218.78;5073438;27;45482;-77
2023/09/21 04:50:42;;;;;;;;;2.50;1.00;;;;;19.81;73.65;99209.25;5081351;27;45491;-76
2023/09/21 04:53:07;;;;;;;;;1.00;1.00;;;;;19.81;73.26;99207.44;5073330;27;47074;-76
2023/09/21 04:55:33;;;;;;;;;2.00;1.75;;;;;19.83;73.76;99202.00;5075667;27;45241;-78
2023/09/21 04:57:58;;;;;;;;;1.00;0.50;;;;;19.82;73.80;99200.34;5080115;28;49894;-77
2023/09/21 05:00:23;;;;;;;;;2.50;2.00;;;;;19.82;73.16;99192.38;5076900;28;45182;-76
2023/09/21 05:02:49;;;;;;;;;3.00;1.00;;;;;19.82;73.43;99192.38;5077896;28;68743;-77
2023/09/21 05:05:15;;;;;;;;;2.25;2.00;;;;;19.83;73.81;99183.41;5078356;28;45700;-77
2023/09/21 05:07:41;;;;;;;;;3.50;2.00;;;;;19.82;73.51;99179.09;5077817;28;45569;-77
2023/09/21 05:10:07;;;;;;;;;2.75;2.00;;;;;19.81;74.36;99178.25;5077226;28;45541;-77
2023/09/21 05:12:33;;;;;;;;;4.00;2.00;;;;;19.79;73.51;99171.41;5073553;28;47042;-78
2023/09/21 05:14:58;;;;;;;;;3.00;2.00;;;;;19.73;75.21;99170.97;5072149;28;45352;-77
2023/09/21 05:17:24;;;;;;;;;3.50;2.00;;;;;19.72;73.85;99169.28;5073133;28;45205;-77
2023/09/21 05:19:50;;;;;;;;;4.25;2.00;;;;;19.72;73.89;99168.44;5062954;28;64674;-76
2023/09/21 05:22:15;;;;;;;;;2.75;1.00;;;;;19.71;73.64;99180.88;5068605;28;45899;-77
2023/09/21 05:24:41;;;;;;;;;4.75;3.00;;;;;19.70;73.97;99186.31;5070859;27;64743;-78
2023/09/21 05:27:08;;;;;;;;;2.00;1.75;;;;;19.70;74.11;99173.88;5073338;28;63772;-77
2023/09/21 05:29:33;;;;;;;;;5.25;3.00;;;;;19.69;73.68;99177.53;5074894;28;45672;-76
2023/09/21 05:31:59;;;;;;;;;7.75;6.00;;;;;19.70;74.75;99173.03;5071123;28;46290;-77
2023/09/21 05:34:27;;;;;;;;;7.75;6.50;;;;;19.68;74.78;99175.81;5068730;28;45384;-78
2023/09/21 05:36:54;;;;;;;;;2.75;2.00;;;;;19.66;74.39;99179.63;5069955;28;45571;-75
2023/09/21 05:39:19;;;;;;;;;2.25;2.25;;;;;19.64;73.80;99170.94;5078650;27;47200;-75
2023/09/21 05:41:48;;;;;;;;;3.25;3.00;;;;;19.62;74.23;99183.50;5069968;28;46519;-81
2023/09/21 05:44:13;;;;;;;;;4.00;3.00;;;;;19.64;73.93;99187.72;5073006;27;45236;-78
2023/09/21 05:46:39;;;;;;;;;6.00;2.00;;;;;19.65;73.64;99192.00;5074766;27;45600;-77
2023/09/21 05:49:07;;;;;;;;;3.50;2.00;;;;;19.64;73.90;99184.22;5071251;27;45463;-80
2023/09/21 05:51:34;;;;;;;;;2.50;2.50;;;;;19.61;73.65;99187.97;5076775;28;46225;-78
2023/09/21 05:54:00;;;;;;;;;3.00;3.00;;;;;19.62;74.01;99186.16;5074991;28;45719;-79
2023/09/21 05:56:27;;;;;;;;;3.00;3.00;;;;;19.62;74.49;99197.63;5077777;28;45531;-78
2023/09/21 05:58:52;;;;;;;;;26.00;21.50;;;;;19.60;75.20;99190.75;5076375;28;45468;-72
2023/09/21 06:01:17;;;;;;;;;3.00;2.50;;;;;19.60;74.95;99193.41;5063402;28;45425;-80
2023/09/21 06:03:43;;;;;;;;;5.75;2.00;;;;;19.58;73.43;99196.19;5072395;28;45425;-76
2023/09/21 06:06:09;;;;;;;;;3.00;2.50;;;;;19.59;73.53;99210.31;5094683;27;59983;-77
2023/09/21 06:08:37;;;;;;;;;2.00;2.00;;;;;19.56;73.86;99216.72;5070445;28;45277;-75
2023/09/21 06:11:04;;;;;;;;;6.00;2.75;;;;;19.53;74.07;99217.84;5073334;28;47156;-73
2023/09/21 06:13:29;;;;;;;;;3.00;3.00;;;;;19.53;73.84;99220.50;5079496;28;45410;-81
2023/09/21 06:15:55;;;;;;;;;1.75;1.00;;;;;19.53;74.64;99214.38;5074213;28;46291;-78
2023/09/21 06:18:22;;;;;;;;;2.00;2.00;;;;;19.52;74.19;99213.50;5077856;28;45399;-82
2023/09/21 06:20:48;;;;;;;;;4.00;3.00;;;;;19.52;75.21;99218.81;5075445;28;46548;-78
2023/09/21 06:23:17;;;;;;;;;5.00;3.50;;;;;19.51;73.83;99219.81;5073625;28;45512;-75
2023/09/21 06:25:43;;;;;;;;;3.00;2.00;;;;;19.51;73.75;99230.44;5078715;27;45333;-76
2023/09/21 06:28:08;;;;;;;;;4.00;2.25;;;;;19.51;73.62;99219.81;5083597;27;45417;-76
2023/09/21 06:30:34;;;;;;;;;3.00;2.50;;;;;19.54;74.00;99227.47;5055411;28;48039;-78
2023/09/21 06:32:59;;;;;;;;;4.75;3.50;;;;;19.56;73.64;99226.50;5074235;28;63874;-77
2023/09/21 06:35:25;;;;;;;;;6.00;3.00;;;;;19.55;73.05;99215.06;5064803;28;58963;-77
2023/09/21 06:37:56;;;;;;;;;3.25;3.00;;;;;19.56;73.15;99218.56;5077573;28;45399;-76
2023/09/21 06:40:23;;;;;;;;;6.50;6.00;;;;;19.55;73.56;99220.38;5075346;28;46188;-77
2023/09/21 06:42:49;;;;;;;;;3.75;2.75;;;;;19.56;74.04;99237.13;5075001;28;45434;-77
2023/09/21 06:45:14;;;;;;;;;2.50;2.50;;;;;19.55;73.48;99231.00;5066290;28;64158;-76
2023/09/21 06:47:39;;;;;;;;;3.00;3.00;;;;;19.57;74.56;99223.72;5073732;28;70118;-77
2023/09/21 06:50:07;;;;;;;;;2.00;2.00;;;;;19.56;73.89;99243.25;5070049;28;73636;-77
2023/09/21 06:52:32;;;;;;;;;5.25;4.50;;;;;19.57;73.96;99237.00;5069129;28;45755;-72
2023/09/21 06:55:00;;;;;;;;;4.00;3.75;;;;;19.59;74.50;99250.13;5072269;28;45396;-71
2023/09/21 06:57:26;;;;;;;;;6.00;3.00;;;;;19.59;73.90;99255.44;5067290;28;45459;-70
2023/09/21 06:59:52;;;;;;;;;3.00;1.25;;;;;19.59;75.16;99253.63;5071272;28;45451;-71
2023/09/21 07:02:17;;;;;;;;;2.25;2.00;;;;;19.58;73.95;99259.06;5074322;28;45662;-70
2023/09/21 07:04:42;;;;;;;;;2.25;2.25;;;;;19.54;74.36;99254.00;5074593;28;48691;-70
2023/09/21 07:07:07;;;;;;;;;4.50;3.00;;;;;19.53;74.04;99255.00;5068466;28;65760;-70
2023/09/21 07:09:35;;;;;;;;;2.50;2.00;;;;;19.54;75.21;99248.72;5072577;28;74850;-72
2023/09/21 07:12:02;;;;;;;;;3.00;3.00;;;;;19.50;75.60;99247.31;5066093;28;45695;-70
2023/09/21 07:14:28;;;;;;;;;2.50;2.00;;;;;19.47;75.23;99242.25;5071008;28;45311;-71
2023/09/21 07:16:55;;;;;;;;;4.50;3.50;;;;;19.46;74.75;99237.09;5066596;28;45280;-70
2023/09/21 07:19:20;;;;;;;;;5.25;2.75;;;;;19.44;75.08;99226.63;5059820;28;46347;-71
2023/09/21 07:21:45;;;;;;;;;3.00;3.00;;;;;19.45;75.46;99233.59;5065660;28;45382;-71
2023/09/21 07:24:11;;;;;;;;;3.00;3.00;;;;;19.44;75.61;99234.59;5068464;28;62810;-71
2023/09/21 07:26:36;;;;;;;;;3.25;2.75;;;;;19.42;76.36;99228.56;5065482;28;69031;-71
2023/09/21 07:29:05;;;;;;;;;4.75;3.00;;;;;19.40;75.91;99229.69;5065453;28;45271;-70
2023/09/21 07:31:33;;;;;;;;;4.00;3.00;;;;;19.39;76.61;99220.91;5065679;28;45229;-71
2023/09/21 07:33:59;;;;;;;;;2.00;2.00;;;;;19.39;76.81;99222.69;5066996;28;45304;-71
2023/09/21 07:36:24;;;;;;;;;4.00;4.00;;;;;19.37;75.91;99214.88;5065812;28;45395;-71
2023/09/21 07:38:53;;;;;;;;;119.25;92.00;;;;;19.34;77.26;99213.31;5075671;28;45377;-70
2023/09/21 07:41:19;;;;;;;;;10.50;10.50;;;;;19.32;76.28;99207.31;5067637;28;45738;-71
2023/09/21 07:43:45;;;;;;;;;5.50;3.00;;;;;19.32;76.55;99202.03;5078243;27;45179;-70
2023/09/21 07:46:10;;;;;;;;;4.75;2.00;;;;;19.30;76.64;99203.97;5077690;28;45283;-71
2023/09/21 07:48:36;;;;;;;;;5.25;3.00;;;;;19.29;76.14;99199.63;5077273;27;45243;-71
2023/09/21 07:51:06;;;;;;;;;3.25;2.00;;;;;19.30;76.32;99200.47;5077454;28;65478;-71
2023/09/21 07:53:32;;;;;;;;;2.75;2.00;;;;;19.28;76.33;99197.09;5075962;28;45425;-70
2023/09/21 07:56:08;;;;;;;;;2.75;1.25;;;;;19.27;76.51;99193.63;5069836;28;45454;-71
2023/09/21 07:58:33;;;;;;;;;4.00;2.00;;;;;19.27;76.41;99198.09;5071614;27;47055;-71
2023/09/21 08:01:00;;;;;;;;;2.00;2.00;;;;;19.25;76.46;99195.56;5070139;28;45282;-71
2023/09/21 08:03:26;;;;;;;;;3.00;3.00;;;;;19.25;76.08;99192.09;5066379;27;45229;-71
2023/09/21 08:05:55;;;;;;;;;4.75;2.00;;;;;19.26;76.30;99191.09;5069707;27;45287;-70
2023/09/21 08:08:21;;;;;;;;;4.00;4.00;;;;;19.28;76.17;99195.31;5073304;28;46209;-70
2023/09/21 08:10:47;;;;;;;;;4.00;2.50;;;;;19.28;76.34;99197.09;5071991;28;45418;-70
2023/09/21 08:13:12;;;;;;;;;5.25;2.50;;;;;19.27;76.46;99201.59;5067411;27;45482;-71
2023/09/21 08:15:37;;;;;;;;;4.00;3.00;;;;;19.26;76.02;99196.41;5075394;27;45588;-71
2023/09/21 08:18:06;;;;;;;;;5.00;3.25;;;;;19.25;76.56;99192.94;5078944;27;45490;-71
2023/09/21 08:20:32;;;;;;;;;2.00;2.00;;;;;19.24;76.31;99187.75;5064283;27;45231;-70
2023/09/21 08:22:58;;;;;;;;;5.00;2.00;;;;;19.24;76.39;99183.28;5077630;27;45513;-71
2023/09/21 08:25:23;;;;;;;;;4.00;2.00;;;;;19.23;76.42;99183.41;5075203;28;45562;-70
2023/09/21 08:27:48;;;;;;;;;4.50;3.25;;;;;19.22;76.37;99184.41;5065813;28;69949;-70
2023/09/21 08:30:15;;;;;;;;;7.50;5.75;;;;;19.21;76.17;99178.28;5070119;28;67279;-71
2023/09/21 08:32:41;;;;;;;;;7.75;4.00;;;;;19.22;76.66;99171.97;5078846;28;45435;-71
2023/09/21 08:35:07;;;;;;;;;3.25;2.50;;;;;19.24;76.02;99183.28;5066782;28;45459;-71
2023/09/21 08:37:33;;;;;;;;;5.50;4.00;;;;;19.24;76.54;99171.84;5070579;28;46471;-71
2023/09/21 08:39:58;;;;;;;;;5.00;3.00;;;;;19.25;76.11;99170.88;5073018;28;45368;-71
2023/09/21 08:42:25;;;;;;;;;3.75;3.00;;;;;19.27;76.88;99169.75;5072499;28;45908;-71
2023/09/21 08:44:50;;;;;;;;;5.25;2.75;;;;;19.26;75.82;99176.03;5065913;28;45347;-71
2023/09/21 08:47:16;;;;;;;;;3.00;3.00;;;;;19.26;76.18;99172.53;5083351;27;72824;-71
2023/09/21 08:49:45;;;;;;;;;3.00;3.00;;;;;19.28;75.72;99182.06;5079881;28;45752;-71
2023/09/21 08:52:12;;;;;;;;;5.00;4.00;;;;;19.28;76.15;99167.94;5066098;28;45304;-72
2023/09/21 08:54:42;;;;;;;;;5.25;2.75;;;;;19.28;76.09;99168.78;5065603;28;45623;-70
2023/09/21 08:57:11;;;;;;;;;4.75;2.00;;;;;19.27;75.87;99166.28;5068206;28;46111;-70
2023/09/21 08:59:40;;;;;;;;;2.00;1.00;;;;;19.27;76.31;99167.09;5073819;27;45401;-71
2023/09/21 09:02:10;;;;;;;;;3.00;2.50;;;;;19.27;75.67;99172.41;5066139;28;45290;-70
2023/09/21 09:04:36;;;;;;;;;2.50;2.50;;;;;19.26;75.54;99162.75;5068864;28;45386;-71
2023/09/21 09:07:02;;;;;;;;;3.75;2.00;;;;;19.32;75.68;99166.72;5068352;28;46047;-70
2023/09/21 09:09:27;;;;;;;;;3.25;3.25;;;;;19.31;75.93;99163.19;5066269;28;45318;-70
2023/09/21 09:11:53;;;;;;;;;5.25;4.25;;;;;19.32;75.64;99167.53;5075102;28;53427;-71
2023/09/21 09:14:19;;;;;;;;;1.00;1.00;;;;;19.32;75.64;99159.56;5078819;27;45490;-70
2023/09/21 09:16:46;;;;;;;;;4.25;3.50;;;;;19.34;76.00;99162.09;5075997;27;45423;-70
2023/09/21 09:19:12;;;;;;;;;7.50;4.00;;;;;19.38;75.80;99149.41;5078093;27;45280;-71
2023/09/21 09:21:38;;;;;;;;;3.25;2.75;;;;;19.38;76.20;99142.28;5081821;28;45520;-71
2023/09/21 09:24:04;;;;;;;;;6.25;3.25;;;;;19.38;75.90;99131.66;5079789;27;45226;-71
2023/09/21 09:26:30;;;;;;;;;6.25;4.25;;;;;19.39;75.38;99133.34;5081857;27;46325;-70
2023/09/21 09:29:04;;;;;;;;;5.75;3.00;;;;;19.42;75.67;99124.25;5073813;27;45460;-71
2023/09/21 09:31:29;;;;;;;;;4.50;4.00;;;;;19.43;75.60;99118.81;5079678;27;45512;-70
2023/09/21 09:33:56;;;;;;;;;5.25;3.25;;;;;19.47;75.91;99114.91;5080345;27;45327;-71
2023/09/21 09:36:22;;;;;;;;;5.75;3.25;;;;;19.52;75.58;99114.50;5077787;27;47165;-70
2023/09/21 09:38:47;;;;;;;;;3.00;3.00;;;;;19.52;75.63;99120.63;5079385;27;66118;-71
2023/09/21 09:41:14;;;;;;;;;3.50;3.00;;;;;19.50;75.58;99117.28;5078924;27;63031;-71
2023/09/21 09:43:41;;;;;;;;;2.75;2.00;;;;;19.50;75.57;99119.13;5085452;27;45417;-70
2023/09/21 09:46:12;;;;;;;;;4.50;4.00;;;;;19.46;75.30;99110.59;5075836;27;45445;-70
2023/09/21 09:48:43;;;;;;;;;3.50;3.50;;;;;19.46;76.06;99107.09;5073249;28;45693;-70
2023/09/21 09:51:11;;;;;;;;;3.75;2.00;;;;;19.44;75.30;99112.56;5065236;27;45170;-72
2023/09/21 09:53:38;;;;;;;;;4.50;3.00;;;;;19.41;75.66;99122.59;5079225;28;45331;-69
2023/09/21 09:56:08;;;;;;;;;1.75;1.75;;;;;19.39;75.92;99148.41;5077303;28;46326;-69
2023/09/21 09:58:43;;;;;;;;;3.00;3.00;;;;;19.36;75.21;99157.50;5069093;27;45481;-68
2023/09/21 10:01:14;;;;;;;;;1.00;1.00;;;;;19.31;73.96;99154.41;5078593;27;45232;-69
2023/09/21 10:03:40;;;;;;;;;1.00;1.00;;;;;19.19;73.30;99148.38;5069191;28;45560;-70
2023/09/21 10:06:08;;;;;;;;;3.50;0.75;;;;;19.03;72.83;99153.34;5062861;27;45963;-69
2023/09/21 10:08:36;;;;;;;;;0.00;0.00;;;;;18.91;72.96;99161.41;5076148;28;45235;-71
2023/09/21 10:11:03;;;;;;;;;1.00;1.00;;;;;18.86;72.56;99146.88;5073900;27;45331;-70
2023/09/21 10:13:30;;;;;;;;;3.25;1.75;;;;;18.77;72.73;99146.66;5073466;27;61512;-70
2023/09/21 10:16:01;;;;;;;;;2.00;1.00;;;;;18.77;72.84;99156.44;5080934;27;46128;-71
2023/09/21 10:18:35;;;;;;;;;1.25;1.25;;;;;18.82;73.20;99137.50;5081034;27;45705;-70
2023/09/21 10:21:33;;;;;;;;;1.00;1.00;;;;;18.91;73.07;99152.59;5075870;27;45413;-70
2023/09/21 10:24:03;;;;;;;;;8.00;4.00;;;;;18.98;72.49;99153.75;5076597;27;45434;-71
2023/09/21 10:26:33;;;;;;;;;4.50;2.50;;;;;19.02;73.01;99149.88;5080152;28;45434;-70
2023/09/21 10:29:03;;;;;;;;;1.50;1.50;;;;;19.06;71.58;99143.31;5078459;28;45334;-70
2023/09/21 10:31:29;;;;;;;;;1.50;1.25;;;;;19.10;71.70;99147.38;5077482;28;45324;-70
2023/09/21 10:33:57;;;;;;;;;2.25;2.00;;;;;19.18;71.53;99159.13;5068172;28;45414;-70
2023/09/21 10:36:23;;;;;;;;;4.25;2.75;;;;;19.22;70.70;99155.22;5079859;27;45488;-71
2023/09/21 10:39:13;;;;;;;;;1.50;1.50;;;;;19.27;70.31;99163.63;5072472;28;45486;-70
2023/09/21 10:41:45;;;;;;;;;6.00;3.50;;;;;19.30;69.78;99160.66;5093946;27;45487;-70
2023/09/21 10:44:12;;;;;;;;;3.00;2.00;;;;;19.32;69.15;99172.00;5070193;28;45415;-71
2023/09/21 10:46:38;;;;;;;;;1.00;1.00;;;;;19.32;69.25;99172.00;5045042;28;48567;-71
2023/09/21 10:49:03;;;;;;;;;4.75;1.25;;;;;19.31;68.59;99173.81;5072564;28;45311;-71
2023/09/21 10:51:33;;;;;;;;;2.75;2.00;;;;;19.34;68.93;99180.66;5076205;28;45440;-70
2023/09/21 10:54:00;;;;;;;;;2.00;1.00;;;;;19.34;68.67;99184.16;5069106;28;45429;-70
2023/09/21 10:56:29;;;;;;;;;3.00;2.25;;;;;19.32;68.13;99188.75;5078618;27;46345;-70
2023/09/21 10:58:54;;;;;;;;;4.25;3.00;;;;;19.30;67.65;99190.72;5094236;27;45723;-71
2023/09/21 11:01:21;;;;;;;;;5.50;3.00;;;;;19.27;67.79;99208.72;5078154;27;45384;-70
2023/09/21 11:03:48;;;;;;;;;5.00;2.00;;;;;19.18;67.63;99207.69;5078200;27;45357;-70
2023/09/21 11:06:17;;;;;;;;;6.00;3.00;;;;;19.14;67.79;99206.28;5079803;27;47213;-70
2023/09/21 11:08:45;;;;;;;;;4.00;2.00;;;;;19.10;68.32;99208.34;5079094;27;45414;-70
2023/09/21 11:11:13;;;;;;;;;1.25;1.00;;;;;19.04;67.06;99185.03;5079622;28;45391;-71
2023/09/21 11:13:39;;;;;;;;;4.00;1.00;;;;;18.96;67.72;99175.09;5066210;28;45661;-70
2023/09/21 11:16:05;;;;;;;;;3.00;2.00;;;;;18.93;67.76;99156.81;5078204;27;46206;-71
2023/09/21 11:18:31;;;;;;;;;4.00;2.75;;;;;18.92;68.37;99138.38;5070212;27;45801;-70
2023/09/21 11:20:58;;;;;;;;;2.00;2.00;;;;;18.90;68.53;99133.22;5078761;28;45435;-70
2023/09/21 11:23:23;;;;;;;;;2.00;2.00;;;;;18.87;67.94;99124.69;5068326;28;45311;-70
2023/09/21 11:25:49;;;;;;;;;2.00;2.00;;;;;18.84;68.07;99128.47;5067256;28;65306;-70
2023/09/21 11:28:22;;;;;;;;;1.25;1.25;;;;;18.79;68.28;99123.53;5069370;27;45296;-70
2023/09/21 11:30:51;;;;;;;;;2.50;2.25;;;;;18.81;67.98;99139.28;5076957;28;45316;-71
2023/09/21 11:33:21;;;;;;;;;2.75;2.75;;;;;18.78;68.22;99153.63;5077671;28;45411;-69